createdAt,value
2023-03-21T00:01:51.522Z,98426.06
2023-03-21T00:04:18.212Z,98434.84
2023-03-21T00:06:44.824Z,98435.69
2023-03-21T00:09:12.304Z,98427.03
2023-03-21T00:11:38.812Z,98428.72
2023-03-21T00:14:05.853Z,98434.84
2023-03-21T00:16:36.894Z,98426.91
2023-03-21T00:22:05.459Z,98427.88
2023-03-21T00:24:18.914Z,98422.59
2023-03-21T00:26:46.172Z,98414.63
2023-03-21T00:29:13.014Z,98416.44
2023-03-21T00:31:39.689Z,98412.00
2023-03-21T00:34:06.544Z,98405.00
2023-03-21T00:36:33.225Z,98414.63
2023-03-21T00:39:00.858Z,98407.66
2023-03-21T00:41:41.607Z,98412.09
2023-03-21T00:44:11.643Z,98402.34
2023-03-21T00:46:57.399Z,98401.50
2023-03-21T00:49:24.973Z,98392.84
2023-03-21T00:51:52.013Z,98390.91
2023-03-21T00:54:18.842Z,98404.13
2023-03-21T00:56:45.408Z,98394.53
2023-03-21T00:59:11.995Z,98391.03
2023-03-21T01:01:38.630Z,98389.25
2023-03-21T01:04:10.824Z,98386.34
2023-03-21T01:06:40.891Z,98398.97
2023-03-21T01:09:17.204Z,98400.78
2023-03-21T01:11:45.155Z,98391.38
2023-03-21T01:14:22.999Z,98406.09
2023-03-21T01:16:53.734Z,98407.88
2023-03-21T01:19:29.138Z,98399.09
2023-03-21T01:21:58.252Z,98399.09
2023-03-21T01:24:25.437Z,98407.88
2023-03-21T01:26:52.030Z,98394.44
2023-03-21T01:29:18.612Z,98413.19
2023-03-21T01:31:45.475Z,98405.38
2023-03-21T01:34:12.468Z,98408.97
2023-03-21T01:36:39.520Z,98403.53
2023-03-21T01:39:09.989Z,98400.06
2023-03-21T01:41:43.434Z,98404.53
2023-03-21T01:44:22.456Z,98392.94
2023-03-21T01:47:11.479Z,98393.94
2023-03-21T01:50:03.723Z,98395.72
2023-03-21T01:52:46.672Z,98401.88
2023-03-21T01:55:18.161Z,98394.91
2023-03-21T01:58:05.876Z,98400.06
2023-03-21T02:00:52.343Z,98398.38
2023-03-21T02:03:35.802Z,98404.53
2023-03-21T02:07:04.296Z,98390.56
2023-03-21T02:09:49.118Z,98391.53
2023-03-21T02:12:19.905Z,98388.88
2023-03-21T02:14:49.218Z,98392.25
2023-03-21T02:17:43.136Z,98392.34
2023-03-21T02:20:40.813Z,98357.25
2023-03-21T02:23:27.765Z,98389.69
2023-03-21T02:26:41.174Z,98395.00
2023-03-21T02:29:46.153Z,98399.47
2023-03-21T02:32:36.976Z,98387.19
2023-03-21T02:35:37.123Z,98393.34
2023-03-21T02:38:18.386Z,98395.13
2023-03-21T02:41:19.088Z,98396.09
2023-03-21T02:43:54.145Z,98396.00
2023-03-21T02:46:43.828Z,98391.88
2023-03-21T02:49:34.573Z,98391.66
2023-03-21T02:52:14.557Z,98394.31
2023-03-21T02:54:48.985Z,98389.13
2023-03-21T02:57:21.990Z,98396.94
2023-03-21T02:59:55.718Z,98386.72
2023-03-21T03:02:32.126Z,98401.28
2023-03-21T03:05:00.629Z,98399.47
2023-03-21T03:08:09.607Z,98402.13
2023-03-21T03:10:54.531Z,98395.13
2023-03-21T03:13:26.838Z,98397.78
2023-03-21T03:16:36.746Z,98402.13
2023-03-21T03:19:08.637Z,98387.81
2023-03-21T03:21:42.189Z,98396.00
2023-03-21T03:24:20.110Z,98403.94
2023-03-21T03:26:55.899Z,98402.13
2023-03-21T03:29:27.058Z,98386.97
2023-03-21T03:32:01.818Z,98402.25
2023-03-21T03:34:39.493Z,98396.94
2023-03-21T03:37:10.870Z,98397.78
2023-03-21T03:39:47.224Z,98399.59
2023-03-21T03:42:28.101Z,98401.38
2023-03-21T03:45:06.689Z,98398.75
2023-03-21T03:47:41.942Z,98396.94
2023-03-21T03:50:41.427Z,98395.41
2023-03-21T03:53:36.997Z,98394.44
2023-03-21T03:56:07.010Z,98373.00
2023-03-21T03:58:44.977Z,98397.09
2023-03-21T04:01:14.633Z,98390.09
2023-03-21T04:03:50.611Z,98387.44
2023-03-21T04:06:22.058Z,98391.88
2023-03-21T04:08:50.997Z,98389.25
2023-03-21T04:11:20.390Z,98391.88
2023-03-21T04:13:51.965Z,98389.25
2023-03-21T04:16:23.484Z,98384.19
2023-03-21T04:18:52.411Z,98388.41
2023-03-21T04:21:19.699Z,98387.56
2023-03-21T04:23:46.271Z,98394.66
2023-03-21T04:26:12.898Z,98394.66
2023-03-21T04:28:47.397Z,98394.66
2023-03-21T04:31:35.906Z,98399.13
2023-03-21T04:34:09.817Z,98398.28
2023-03-21T04:36:39.113Z,98394.19
2023-03-21T04:39:12.496Z,98400.91
2023-03-21T04:41:42.004Z,98404.44
2023-03-21T04:44:09.526Z,98401.88
2023-03-21T04:46:36.880Z,98396.13
2023-03-21T04:49:04.867Z,98399.38
2023-03-21T04:51:31.409Z,98397.44
2023-03-21T04:53:58.161Z,98398.41
2023-03-21T04:56:32.677Z,98402.88
2023-03-21T04:59:07.901Z,98401.19
2023-03-21T05:01:34.604Z,98394.06
2023-03-21T05:04:02.474Z,98389.88
2023-03-21T05:06:32.029Z,98404.66
2023-03-21T05:09:00.204Z,98397.69
2023-03-21T05:11:30.770Z,98398.53
2023-03-21T05:13:59.222Z,98400.31
2023-03-21T05:16:30.390Z,98402.97
2023-03-21T05:19:04.994Z,98390.09
2023-03-21T05:21:42.048Z,98401.28
2023-03-21T05:24:20.040Z,98411.88
2023-03-21T05:26:50.928Z,98417.16
2023-03-21T05:29:20.030Z,98416.34
2023-03-21T05:31:57.152Z,98410.91
2023-03-21T05:34:25.422Z,98405.75
2023-03-21T05:36:51.998Z,98415.38
2023-03-21T05:39:19.143Z,98418.88
2023-03-21T05:41:57.323Z,98418.75
2023-03-21T05:44:24.947Z,98410.81
2023-03-21T05:46:52.056Z,98416.13
2023-03-21T05:49:23.044Z,98415.25
2023-03-21T05:51:54.100Z,98422.47
2023-03-21T05:54:20.794Z,98426.81
2023-03-21T05:56:49.089Z,98426.72
2023-03-21T05:59:25.734Z,98422.38
2023-03-21T06:01:57.286Z,98420.69
2023-03-21T06:04:24.070Z,98419.47
2023-03-21T06:06:52.134Z,98428.63
2023-03-21T06:09:19.992Z,98434.88
2023-03-21T06:11:55.456Z,98441.00
2023-03-21T06:14:29.948Z,98445.34
2023-03-21T06:17:17.376Z,98426.69
2023-03-21T06:19:50.682Z,98434.88
2023-03-21T06:22:43.453Z,98416.22
2023-03-21T06:25:11.164Z,98427.75
2023-03-21T06:27:38.062Z,98430.31
2023-03-21T06:30:07.363Z,98434.75
2023-03-21T06:32:40.568Z,98432.97
2023-03-21T06:35:11.604Z,98439.09
2023-03-21T06:37:38.524Z,98441.75
2023-03-21T06:40:07.742Z,98440.78
2023-03-21T06:42:34.530Z,98432.72
2023-03-21T06:45:08.447Z,98445.13
2023-03-21T06:47:35.199Z,98437.16
2023-03-21T06:50:06.987Z,98435.34
2023-03-21T06:52:39.707Z,98430.91
2023-03-21T06:55:07.011Z,98439.56
2023-03-21T06:57:34.764Z,98443.16
2023-03-21T07:00:02.121Z,98435.00
2023-03-21T07:02:29.126Z,98442.94
2023-03-21T07:05:13.001Z,98429.56
2023-03-21T07:07:40.636Z,98434.88
2023-03-21T07:10:08.722Z,98433.91
2023-03-21T07:12:44.412Z,98413.47
2023-03-21T07:15:19.420Z,98434.63
2023-03-21T07:17:46.572Z,98434.63
2023-03-21T07:20:14.052Z,98436.31
2023-03-21T07:22:41.348Z,98421.97
2023-03-21T07:25:08.866Z,98443.28
2023-03-21T07:27:41.211Z,98443.19
2023-03-21T07:30:10.408Z,98444.97
2023-03-21T07:32:37.909Z,98432.69
2023-03-21T07:35:10.888Z,98435.34
2023-03-21T07:37:38.235Z,98437.03
2023-03-21T07:40:10.147Z,98433.69
2023-03-21T07:42:39.226Z,98434.50
2023-03-21T07:45:07.738Z,98448.47
2023-03-21T07:47:35.391Z,98439.66
2023-03-21T07:50:04.521Z,98445.81
2023-03-21T07:52:32.238Z,98440.28
2023-03-21T07:54:59.048Z,98447.63
2023-03-21T07:57:26.107Z,98440.88
2023-03-21T07:59:52.758Z,98450.41
2023-03-21T08:02:19.427Z,98445.81
2023-03-21T08:04:46.705Z,98454.59
2023-03-21T08:07:13.731Z,98450.16
2023-03-21T08:09:40.443Z,98457.13
2023-03-21T08:12:08.520Z,98461.47
2023-03-21T08:14:36.640Z,98462.31
2023-03-21T08:17:07.197Z,98448.72
2023-03-21T08:19:34.263Z,98468.44
2023-03-21T08:22:01.253Z,98454.00
2023-03-21T08:24:31.913Z,98470.28
2023-03-21T08:26:58.516Z,98466.06
2023-03-21T08:29:25.131Z,98450.53
2023-03-21T08:31:51.967Z,98475.56
2023-03-21T08:34:19.494Z,98464.25
2023-03-21T08:36:47.098Z,98472.91
2023-03-21T08:39:13.917Z,98476.16
2023-03-21T08:41:40.582Z,98469.06
2023-03-21T08:44:07.172Z,98474.34
2023-03-21T08:46:33.834Z,98474.22
2023-03-21T08:49:00.596Z,98476.72
2023-03-21T08:51:27.644Z,98480.25
2023-03-21T08:53:54.284Z,98471.69
2023-03-21T08:56:20.992Z,98481.00
2023-03-21T08:58:47.532Z,98480.16
2023-03-21T09:01:15.736Z,98468.44
2023-03-21T09:03:43.523Z,98486.31
2023-03-21T09:06:13.820Z,98487.97
2023-03-21T09:08:43.239Z,98468.31
2023-03-21T09:11:10.313Z,98494.13
2023-03-21T09:13:39.694Z,98494.34
2023-03-21T09:16:06.747Z,98502.91
2023-03-21T09:18:45.328Z,98499.44
2023-03-21T09:21:14.724Z,98492.75
2023-03-21T09:23:42.397Z,98500.38
2023-03-21T09:26:09.789Z,98470.03
2023-03-21T09:28:38.929Z,98482.53
2023-03-21T09:31:06.534Z,98496.91
2023-03-21T09:33:35.321Z,98487.47
2023-03-21T09:36:02.077Z,98492.91
2023-03-21T09:38:30.508Z,98499.56
2023-03-21T09:41:18.719Z,98485.78
2023-03-21T09:44:03.594Z,98497.00
2023-03-21T09:46:45.659Z,98498.69
2023-03-21T09:49:35.338Z,98505.88
2023-03-21T09:52:12.413Z,98500.50
2023-03-21T09:54:44.688Z,98498.78
2023-03-21T09:57:36.480Z,98495.09
2023-03-21T10:00:14.389Z,98499.56
2023-03-21T10:02:49.546Z,98495.09
2023-03-21T10:05:28.234Z,98491.59
2023-03-21T10:07:57.918Z,98488.09
2023-03-21T10:10:32.327Z,98489.78
2023-03-21T10:12:59.859Z,98488.97
2023-03-21T10:15:27.547Z,98491.47
2023-03-21T10:18:01.464Z,98477.97
2023-03-21T10:20:33.931Z,98488.97
2023-03-21T10:23:05.385Z,98480.25
2023-03-21T10:25:42.585Z,98496.78
2023-03-21T10:28:16.903Z,98484.50
2023-03-21T10:30:48.973Z,98497.59
2023-03-21T10:33:20.614Z,98494.97
2023-03-21T10:35:57.048Z,98493.16
2023-03-21T10:38:26.659Z,98494.84
2023-03-21T10:40:53.949Z,98488.56
2023-03-21T10:43:26.183Z,98493.03
2023-03-21T10:45:57.697Z,98488.56
2023-03-21T10:48:24.898Z,98491.22
2023-03-21T10:50:57.897Z,98489.44
2023-03-21T10:53:35.215Z,98485.81
2023-03-21T10:56:07.186Z,98499.06
2023-03-21T10:58:41.125Z,98490.13
2023-03-21T11:01:14.784Z,98488.34
2023-03-21T11:03:46.877Z,98489.28
2023-03-21T11:06:40.190Z,98490.25
2023-03-21T11:09:17.786Z,98470.59
2023-03-21T11:11:54.506Z,98474.09
2023-03-21T11:14:27.906Z,98492.91
2023-03-21T11:16:54.589Z,98487.59
2023-03-21T11:19:36.068Z,98492.22
2023-03-21T11:22:08.008Z,98487.88
2023-03-21T11:24:36.140Z,98475.81
2023-03-21T11:27:07.641Z,98485.22
2023-03-21T11:29:38.908Z,98492.31
2023-03-21T11:32:16.965Z,98486.03
2023-03-21T11:35:05.911Z,98477.97
2023-03-21T11:37:37.634Z,98486.31
2023-03-21T11:40:18.081Z,98474.84
2023-03-21T11:42:48.130Z,98478.47
2023-03-21T11:45:16.332Z,98482.03
2023-03-21T11:47:43.575Z,98478.56
2023-03-21T11:50:18.263Z,98478.22
2023-03-21T11:52:56.932Z,98484.69
2023-03-21T11:55:34.917Z,98480.59
2023-03-21T11:58:22.442Z,98486.50
2023-03-21T12:01:03.894Z,98479.50
2023-03-21T12:03:57.426Z,98480.38
2023-03-21T12:06:48.328Z,98475.06
2023-03-21T12:09:34.516Z,98461.00
2023-03-21T12:12:10.431Z,98466.28
2023-03-21T12:14:59.014Z,98468.91
2023-03-21T12:17:50.559Z,98471.44
2023-03-21T12:20:46.644Z,98473.25
2023-03-21T12:23:33.402Z,98464.47
2023-03-21T12:26:03.002Z,98462.66
2023-03-21T12:28:56.490Z,98461.84
2023-03-21T12:31:42.275Z,98464.47
2023-03-21T12:34:25.013Z,98460.97
2023-03-21T12:37:03.551Z,98457.50
2023-03-21T12:39:36.870Z,98463.75
2023-03-21T12:42:24.637Z,98457.63
2023-03-21T12:45:00.643Z,98345.63
2023-03-21T12:47:30.870Z,98453.28
2023-03-21T12:50:03.555Z,98442.09
2023-03-21T12:55:01.713Z,98437.97
2023-03-21T12:57:56.489Z,98438.84
2023-03-21T13:00:36.098Z,98443.78
2023-03-21T13:03:19.557Z,98444.47
2023-03-21T13:06:07.139Z,98438.47
2023-03-21T13:08:38.644Z,98445.56
2023-03-21T13:11:07.523Z,98425.97
2023-03-21T13:13:40.024Z,98442.91
2023-03-21T13:16:06.999Z,98442.09
2023-03-21T13:18:41.622Z,98409.13
2023-03-21T13:21:19.383Z,98405.53
2023-03-21T13:24:03.393Z,98434.38
2023-03-21T13:26:38.151Z,98427.66
2023-03-21T13:29:25.635Z,98438.72
2023-03-21T13:31:57.400Z,98416.81
2023-03-21T13:34:25.514Z,98430.03
2023-03-21T13:36:52.874Z,98403.47
2023-03-21T13:39:25.404Z,98403.84
2023-03-21T13:41:53.206Z,98434.63
2023-03-21T13:45:00.710Z,98434.72
2023-03-21T13:47:36.327Z,98437.38
2023-03-21T13:50:18.208Z,98431.38
2023-03-21T13:53:03.632Z,98440.28
2023-03-21T13:55:41.631Z,98424.28
2023-03-21T13:58:32.826Z,98432.22
2023-03-21T14:01:17.698Z,98442.34
2023-03-21T14:03:47.095Z,98440.03
2023-03-21T14:06:15.551Z,98438.00
2023-03-21T14:08:46.263Z,98441.59
2023-03-21T14:11:18.476Z,98435.47
2023-03-21T14:13:51.381Z,98439.94
2023-03-21T14:16:19.501Z,98438.97
2023-03-21T14:18:54.524Z,98436.44
2023-03-21T14:21:34.809Z,98446.06
2023-03-21T14:24:13.444Z,98435.72
2023-03-21T14:27:01.856Z,98440.03
2023-03-21T14:29:34.342Z,98435.72
2023-03-21T14:32:02.708Z,98421.53
2023-03-21T14:34:33.505Z,98433.06
2023-03-21T14:37:01.065Z,98434.88
2023-03-21T14:39:33.140Z,98435.72
2023-03-21T14:42:08.334Z,98434.88
2023-03-21T14:44:53.523Z,98431.75
2023-03-21T14:47:27.760Z,98434.16
2023-03-21T14:49:56.339Z,98434.06
2023-03-21T14:52:34.580Z,98430.53
2023-03-21T14:55:05.811Z,98418.06
2023-03-21T14:57:33.389Z,98427.56
2023-03-21T15:00:10.605Z,98429.81
2023-03-21T15:02:39.992Z,98425.50
2023-03-21T15:05:18.677Z,98410.09
2023-03-21T15:07:54.163Z,98425.50
2023-03-21T15:10:21.196Z,98422.00
2023-03-21T15:12:52.301Z,98416.84
2023-03-21T15:15:19.778Z,98418.53
2023-03-21T15:17:47.309Z,98424.91
2023-03-21T15:20:17.484Z,98399.28
2023-03-21T15:22:55.340Z,98409.13
2023-03-21T15:25:34.840Z,98412.50
2023-03-21T15:28:03.622Z,98413.34
2023-03-21T15:30:32.975Z,98408.16
2023-03-21T15:33:07.808Z,98391.47
2023-03-21T15:35:39.946Z,98401.66
2023-03-21T15:38:07.405Z,98420.69
2023-03-21T15:40:35.233Z,98402.66
2023-03-21T15:43:06.498Z,98420.69
2023-03-21T15:45:35.312Z,98411.06
2023-03-21T15:48:09.115Z,98410.22
2023-03-21T15:50:39.913Z,98412.03
2023-03-21T15:53:17.149Z,98409.50
2023-03-21T15:55:50.128Z,98403.25
2023-03-21T15:58:26.339Z,98421.88
2023-03-21T16:00:55.733Z,98417.53
2023-03-21T16:03:30.313Z,98408.53
2023-03-21T16:06:19.863Z,98422.97
2023-03-21T16:08:52.446Z,98421.19
2023-03-21T16:11:23.395Z,98417.81
2023-03-21T16:13:51.562Z,98419.50
2023-03-21T16:16:26.349Z,98420.44
2023-03-21T16:18:54.825Z,98413.47
2023-03-21T16:21:24.322Z,98413.22
2023-03-21T16:23:51.919Z,98420.59
2023-03-21T16:26:24.766Z,98416.38
2023-03-21T16:28:53.031Z,98406.50
2023-03-21T16:31:22.770Z,98418.03
2023-03-21T16:33:51.173Z,98416.59
2023-03-21T16:36:20.941Z,98431.41
2023-03-21T16:38:55.507Z,98423.44
2023-03-21T16:41:25.375Z,98427.06
2023-03-21T16:43:53.232Z,98432.25
2023-03-21T16:46:22.209Z,98431.53
2023-03-21T16:48:51.697Z,98426.22
2023-03-21T16:51:21.651Z,98416.25
2023-03-21T16:53:49.305Z,98429.00
2023-03-21T16:56:17.754Z,98433.44
2023-03-21T16:58:44.560Z,98433.56
2023-03-21T17:01:14.642Z,98413.00
2023-03-21T17:03:41.572Z,98415.75
2023-03-21T17:06:13.626Z,98434.53
2023-03-21T17:08:40.579Z,98436.69
2023-03-21T17:11:10.700Z,98441.72
2023-03-21T17:13:40.226Z,98433.22
2023-03-21T17:16:07.267Z,98418.78
2023-03-21T17:18:33.808Z,98443.69
2023-03-21T17:21:00.685Z,98442.94
2023-03-21T17:23:27.249Z,98444.63
2023-03-21T17:25:54.775Z,98442.47
2023-03-21T17:28:21.360Z,98448.38
2023-03-21T17:30:50.318Z,98434.97
2023-03-21T17:33:16.980Z,98428.13
2023-03-21T17:35:43.718Z,98449.44
2023-03-21T17:38:16.723Z,98443.19
2023-03-21T17:40:43.455Z,98452.09
2023-03-21T17:43:17.235Z,98450.41
2023-03-21T17:45:43.959Z,98437.84
2023-03-21T17:48:11.112Z,98432.69
2023-03-21T17:50:39.268Z,98459.44
2023-03-21T17:53:08.657Z,98456.91
2023-03-21T17:55:35.761Z,98457.75
2023-03-21T17:58:03.628Z,98458.56
2023-03-21T18:00:32.665Z,98453.50
2023-03-21T18:02:59.208Z,98453.63
2023-03-21T18:05:27.310Z,98464.00
2023-03-21T18:08:11.900Z,98466.72
2023-03-21T18:10:40.895Z,98465.16
2023-03-21T18:13:08.002Z,98471.16
2023-03-21T18:15:36.006Z,98469.59
2023-03-21T18:18:04.629Z,98458.41
2023-03-21T18:23:19.143Z,98420.00
2023-03-21T18:25:45.994Z,98455.28
2023-03-21T18:28:13.138Z,98467.53
2023-03-21T18:31:05.269Z,98475.00
2023-03-21T18:33:28.512Z,98454.78
2023-03-21T18:35:59.312Z,98458.16
2023-03-21T18:38:27.774Z,98453.97
2023-03-21T18:40:55.775Z,98470.81
2023-03-21T18:46:09.502Z,98469.09
2023-03-21T18:48:36.615Z,98464.69
2023-03-21T18:51:06.370Z,98476.22
2023-03-21T18:53:33.036Z,98462.59
2023-03-21T18:55:59.621Z,98475.47
2023-03-21T18:58:27.801Z,98472.84
2023-03-21T19:00:54.715Z,98471.28
2023-03-21T19:03:35.256Z,98475.47
2023-03-21T19:06:05.844Z,98478.25
2023-03-21T19:08:34.751Z,98477.31
2023-03-21T19:11:06.038Z,98476.44
2023-03-21T19:13:34.054Z,98472.09
2023-03-21T19:16:02.553Z,98484.50
2023-03-21T19:18:53.094Z,98465.72
2023-03-21T19:21:19.264Z,98477.75
2023-03-21T19:26:32.787Z,98481.03
2023-03-21T19:28:59.434Z,98480.16
2023-03-21T19:31:26.770Z,98484.63
2023-03-21T19:33:53.375Z,98476.69
2023-03-21T19:36:22.863Z,98472.94
2023-03-21T19:38:50.386Z,98480.28
2023-03-21T19:41:18.234Z,98485.56
2023-03-21T19:43:54.248Z,98461.75
2023-03-21T19:46:25.307Z,98481.25
2023-03-21T19:48:56.267Z,98483.88
2023-03-21T19:51:28.732Z,98469.44
2023-03-21T19:53:57.733Z,98473.91
2023-03-21T19:56:27.059Z,98489.19
2023-03-21T19:58:55.527Z,98495.44
2023-03-21T20:01:22.958Z,98493.63
2023-03-21T20:03:49.725Z,98496.28
2023-03-21T20:06:16.730Z,98494.59
2023-03-21T20:09:21.441Z,98494.72
2023-03-21T20:11:30.350Z,98487.50
2023-03-21T20:13:59.920Z,98494.59
2023-03-21T20:16:34.248Z,98491.09
2023-03-21T20:19:03.662Z,98497.25
2023-03-21T20:21:44.427Z,98484.47
2023-03-21T20:24:16.482Z,98456.41
2023-03-21T20:26:44.977Z,98468.34
2023-03-21T20:30:00.200Z,98490.00
2023-03-21T20:31:58.238Z,98434.28
2023-03-21T20:34:26.115Z,98479.88
2023-03-21T20:36:53.452Z,98470.38
2023-03-21T20:39:20.206Z,98491.59
2023-03-21T20:41:47.514Z,98484.63
2023-03-21T20:44:47.984Z,98473.31
2023-03-21T20:47:00.808Z,98469.09
2023-03-21T20:49:28.497Z,98492.09
2023-03-21T20:54:43.461Z,98481.38
2023-03-21T20:57:10.094Z,98471.28
2023-03-21T20:59:39.965Z,98482.13
2023-03-21T21:02:06.672Z,98480.19
2023-03-21T21:05:12.255Z,98476.91
2023-03-21T21:07:22.067Z,98477.03
2023-03-21T21:09:49.954Z,98474.41
2023-03-21T21:12:19.435Z,98433.59
2023-03-21T21:14:47.802Z,98479.75
2023-03-21T21:17:40.346Z,98486.72
2023-03-21T21:20:31.019Z,98479.66
2023-03-21T21:23:00.241Z,98462.63
2023-03-21T21:25:28.939Z,98489.16
2023-03-21T21:27:56.067Z,98482.91
2023-03-21T21:30:22.788Z,98466.72
2023-03-21T21:32:49.744Z,98465.69
2023-03-21T21:35:17.947Z,98483.84
2023-03-21T21:37:44.835Z,98479.16
2023-03-21T21:40:20.375Z,98481.69
2023-03-21T21:42:47.662Z,98478.09
2023-03-21T21:45:16.093Z,98460.56
2023-03-21T21:47:45.142Z,98459.44
2023-03-21T21:50:12.110Z,98479.66
2023-03-21T21:52:38.777Z,98464.47
2023-03-21T21:55:06.444Z,98479.53
2023-03-21T21:57:34.413Z,98455.91
2023-03-21T22:00:06.731Z,98481.22
2023-03-21T22:02:38.580Z,98490.84
2023-03-21T22:05:05.586Z,98466.16
2023-03-21T22:07:32.307Z,98478.44
2023-03-21T22:09:59.580Z,98478.31
2023-03-21T22:12:26.398Z,98483.59
2023-03-21T22:14:53.051Z,98480.00
2023-03-21T22:17:19.683Z,98468.31
2023-03-21T22:20:02.626Z,98482.56
2023-03-21T22:22:31.877Z,98475.66
2023-03-21T22:24:58.440Z,98458.59
2023-03-21T22:27:25.350Z,98472.78
2023-03-21T22:29:51.916Z,98484.22
2023-03-21T22:32:19.671Z,98478.09
2023-03-21T22:34:46.444Z,98477.34
2023-03-21T22:37:13.198Z,98478.81
2023-03-21T22:39:39.826Z,98472.06
2023-03-21T22:42:06.480Z,98471.59
2023-03-21T22:44:36.899Z,98467.16
2023-03-21T22:47:06.206Z,98459.34
2023-03-21T22:49:32.992Z,98471.34
2023-03-21T22:52:00.843Z,98471.22
2023-03-21T22:54:27.608Z,98449.94
2023-03-21T22:56:54.301Z,98456.78
2023-03-21T22:59:21.161Z,98470.28
2023-03-21T23:01:47.948Z,98471.09
2023-03-21T23:04:15.554Z,98464.03
2023-03-21T23:06:42.800Z,98467.84
2023-03-21T23:09:09.764Z,98452.81
2023-03-21T23:11:37.741Z,98448.84
2023-03-21T23:14:08.093Z,98457.88
2023-03-21T23:16:38.162Z,98440.81
2023-03-21T23:19:05.142Z,98446.31
2023-03-21T23:21:34.437Z,98432.59
2023-03-21T23:24:01.191Z,98448.25
2023-03-21T23:26:28.135Z,98444.75
2023-03-21T23:28:54.811Z,98449.09
2023-03-21T23:31:23.993Z,98455.22
2023-03-21T23:33:51.185Z,98444.50
2023-03-21T23:36:19.155Z,98450.19
2023-03-21T23:38:46.089Z,98435.72
2023-03-21T23:41:16.227Z,98434.66
2023-03-21T23:43:43.678Z,98446.31
2023-03-21T23:46:12.683Z,98436.34
2023-03-21T23:48:44.018Z,98449.09
2023-03-21T23:51:12.152Z,98448.00
2023-03-21T23:53:39.294Z,98435.72
2023-03-21T23:56:21.043Z,98435.97
2023-03-21T23:58:49.963Z,98424.91
